createdAt,value
2016-12-18T00:00:37.524Z,0
2016-12-18T00:01:37.504Z,0
2016-12-18T00:02:37.479Z,0
2016-12-18T00:03:37.460Z,0
2016-12-18T00:04:37.488Z,0
2016-12-18T00:05:37.422Z,0
2016-12-18T00:06:37.403Z,0
2016-12-18T00:07:37.384Z,0
2016-12-18T00:08:37.364Z,0
2016-12-18T00:09:37.343Z,0
2016-12-18T00:10:37.324Z,0
2016-12-18T00:11:37.303Z,0
2016-12-18T00:12:37.282Z,0
2016-12-18T00:13:37.275Z,0
2016-12-18T00:14:37.243Z,0
2016-12-18T00:15:37.218Z,0
2016-12-18T00:16:37.204Z,0
2016-12-18T00:17:37.187Z,0
2016-12-18T00:18:37.163Z,0
2016-12-18T00:19:37.179Z,0
2016-12-18T00:20:37.123Z,0
2016-12-18T00:21:37.112Z,0
2016-12-18T00:22:37.086Z,0
2016-12-18T00:23:37.070Z,0
2016-12-18T00:24:37.049Z,0
2016-12-18T00:25:37.025Z,0
2016-12-18T00:26:37.004Z,0
2016-12-18T00:27:36.989Z,0
2016-12-18T00:28:36.966Z,0
2016-12-18T00:29:36.954Z,0
2016-12-18T00:30:37.230Z,0
2016-12-18T00:31:36.908Z,0
2016-12-18T00:32:36.885Z,0
2016-12-18T00:33:36.874Z,0
2016-12-18T00:34:36.852Z,0
2016-12-18T00:35:36.831Z,0
2016-12-18T00:36:36.816Z,0
2016-12-18T00:37:36.791Z,0
2016-12-18T00:38:36.769Z,0
2016-12-18T00:39:36.747Z,0
2016-12-18T00:40:36.730Z,0
2016-12-18T00:41:36.711Z,0
2016-12-18T00:42:36.692Z,0
2016-12-18T00:43:36.701Z,0
2016-12-18T00:44:36.653Z,0
2016-12-18T00:45:36.633Z,0
2016-12-18T00:46:36.619Z,0
2016-12-18T00:47:36.595Z,0
2016-12-18T00:48:36.579Z,0
2016-12-18T00:49:36.559Z,0
2016-12-18T00:50:36.889Z,0
2016-12-18T00:51:36.511Z,0
2016-12-18T00:52:36.499Z,0
2016-12-18T00:53:36.476Z,0
2016-12-18T00:54:36.456Z,0
2016-12-18T00:55:36.434Z,0
2016-12-18T00:56:36.416Z,0
2016-12-18T00:57:36.396Z,0
2016-12-18T00:58:36.374Z,0
2016-12-18T00:59:36.385Z,0
2016-12-18T01:00:36.334Z,0
2016-12-18T01:01:36.316Z,0
2016-12-18T01:02:36.302Z,0
2016-12-18T01:03:36.274Z,0
2016-12-18T01:04:36.253Z,0
2016-12-18T01:05:36.234Z,0
2016-12-18T01:06:36.216Z,0
2016-12-18T01:07:36.239Z,0
2016-12-18T01:08:36.179Z,0
2016-12-18T01:09:36.164Z,0
2016-12-18T01:10:36.140Z,0
2016-12-18T01:11:36.120Z,0
2016-12-18T01:12:36.099Z,0
2016-12-18T01:13:36.083Z,0
2016-12-18T01:14:36.058Z,0
2016-12-18T01:15:36.071Z,0
2016-12-18T01:16:36.019Z,0
2016-12-18T01:17:36.033Z,0
2016-12-18T01:18:35.981Z,0
2016-12-18T01:19:35.959Z,0
2016-12-18T01:20:35.970Z,0
2016-12-18T01:21:35.922Z,0
2016-12-18T01:22:35.901Z,0
2016-12-18T01:23:35.877Z,0
2016-12-18T01:24:35.859Z,0
2016-12-18T01:25:35.838Z,0
2016-12-18T01:26:35.820Z,0
2016-12-18T01:27:35.799Z,0
2016-12-18T01:28:35.777Z,0
2016-12-18T01:29:35.760Z,0
2016-12-18T01:30:35.744Z,0
2016-12-18T01:31:36.027Z,0
2016-12-18T01:32:35.702Z,0
2016-12-18T01:33:35.687Z,0
2016-12-18T01:34:35.660Z,0
2016-12-18T01:35:35.645Z,0
2016-12-18T01:36:35.625Z,0
2016-12-18T01:37:35.602Z,0
2016-12-18T01:38:35.577Z,0
2016-12-18T01:39:35.559Z,0
2016-12-18T01:40:35.538Z,0
2016-12-18T01:41:35.524Z,0
2016-12-18T01:42:35.505Z,0
2016-12-18T01:43:35.482Z,0
2016-12-18T01:44:35.466Z,0
2016-12-18T01:45:35.442Z,0
2016-12-18T01:46:35.722Z,0
2016-12-18T01:47:35.407Z,0
2016-12-18T01:48:35.378Z,0
2016-12-18T01:49:35.366Z,0
2016-12-18T01:50:35.353Z,0
2016-12-18T01:51:35.323Z,0
2016-12-18T01:52:35.304Z,0
2016-12-18T01:53:35.284Z,0
2016-12-18T01:54:35.266Z,0
2016-12-18T01:55:35.247Z,0
2016-12-18T01:56:35.221Z,0
2016-12-18T01:57:35.207Z,0
2016-12-18T01:58:35.216Z,0
2016-12-18T01:59:35.155Z,0
2016-12-18T02:00:35.238Z,0
2016-12-18T02:01:35.118Z,0
2016-12-18T02:02:35.101Z,0
2016-12-18T02:03:35.077Z,0
2016-12-18T02:04:35.056Z,0
2016-12-18T02:05:35.335Z,0
2016-12-18T02:06:35.013Z,0
2016-12-18T02:07:34.990Z,0
2016-12-18T02:08:34.980Z,0
2016-12-18T02:09:34.986Z,0
2016-12-18T02:10:34.936Z,0
2016-12-18T02:11:34.909Z,0
2016-12-18T02:12:34.888Z,0
2016-12-18T02:13:34.873Z,0
2016-12-18T02:14:34.847Z,0
2016-12-18T02:15:34.824Z,0
2016-12-18T02:16:34.807Z,0
2016-12-18T02:17:34.784Z,0
2016-12-18T02:18:34.767Z,0
2016-12-18T02:19:34.748Z,0
2016-12-18T02:20:34.726Z,0
2016-12-18T02:21:34.704Z,0
2016-12-18T02:22:34.684Z,0
2016-12-18T02:23:34.665Z,0
2016-12-18T02:24:34.647Z,0
2016-12-18T02:25:34.627Z,0
2016-12-18T02:26:34.603Z,0
2016-12-18T02:27:34.582Z,0
2016-12-18T02:28:34.565Z,0
2016-12-18T02:29:34.537Z,0
2016-12-18T02:30:34.526Z,0
2016-12-18T02:31:34.503Z,0
2016-12-18T02:32:34.484Z,0
2016-12-18T02:33:34.464Z,0
2016-12-18T02:34:34.746Z,0
2016-12-18T02:35:34.422Z,0
2016-12-18T02:36:34.405Z,0
2016-12-18T02:37:34.387Z,0
2016-12-18T02:38:34.362Z,0
2016-12-18T02:39:34.341Z,0
2016-12-18T02:40:34.324Z,0
2016-12-18T02:41:34.303Z,0
2016-12-18T02:42:34.282Z,0
2016-12-18T02:43:34.260Z,0
2016-12-18T02:44:34.243Z,0
2016-12-18T02:45:34.216Z,0
2016-12-18T02:46:34.202Z,0
2016-12-18T02:47:34.181Z,0
2016-12-18T02:48:34.192Z,0
2016-12-18T02:49:34.143Z,0
2016-12-18T02:50:34.123Z,0
2016-12-18T02:51:34.101Z,0
2016-12-18T02:52:34.087Z,0
2016-12-18T02:53:34.061Z,0
2016-12-18T02:54:34.046Z,0
2016-12-18T02:55:34.020Z,0
2016-12-18T02:56:33.997Z,0
2016-12-18T02:57:33.979Z,0
2016-12-18T02:58:33.963Z,0
2016-12-18T02:59:33.942Z,0
2016-12-18T03:00:33.924Z,0
2016-12-18T03:01:33.900Z,0
2016-12-18T03:02:33.879Z,0
2016-12-18T03:03:33.860Z,0
2016-12-18T03:04:33.839Z,0
2016-12-18T03:05:33.820Z,0
2016-12-18T03:06:33.801Z,0
2016-12-18T03:07:33.784Z,0
2016-12-18T03:08:33.762Z,0
2016-12-18T03:09:33.745Z,0
2016-12-18T03:10:33.723Z,0
2016-12-18T03:11:33.705Z,0
2016-12-18T03:12:33.684Z,0
2016-12-18T03:13:33.665Z,0
2016-12-18T03:14:33.646Z,0
2016-12-18T03:15:33.621Z,0
2016-12-18T03:16:33.605Z,0
2016-12-18T03:17:33.589Z,0
2016-12-18T03:18:33.574Z,0
2016-12-18T03:19:33.550Z,0
2016-12-18T03:20:33.532Z,0
2016-12-18T03:21:33.509Z,0
2016-12-18T03:22:33.494Z,0
2016-12-18T03:23:33.469Z,0
2016-12-18T03:24:33.453Z,0
2016-12-18T03:25:33.431Z,0
2016-12-18T03:26:33.412Z,0
2016-12-18T03:27:33.393Z,0
2016-12-18T03:28:33.404Z,0
2016-12-18T03:29:33.350Z,0
2016-12-18T03:30:33.329Z,0
2016-12-18T03:31:33.306Z,0
2016-12-18T03:32:33.296Z,0
2016-12-18T03:33:33.272Z,0
2016-12-18T03:34:33.251Z,0
2016-12-18T03:35:33.228Z,0
2016-12-18T03:36:33.213Z,0
2016-12-18T03:37:33.190Z,0
2016-12-18T03:38:33.167Z,0
2016-12-18T03:39:33.147Z,0
2016-12-18T03:40:33.120Z,0
2016-12-18T03:41:33.107Z,0
2016-12-18T03:42:33.088Z,0
2016-12-18T03:43:33.069Z,0
2016-12-18T03:44:33.048Z,0
2016-12-18T03:45:33.021Z,0
2016-12-18T03:46:33.011Z,0
2016-12-18T03:47:32.983Z,0
2016-12-18T03:48:32.961Z,0
2016-12-18T03:49:32.945Z,0
2016-12-18T03:50:32.925Z,0
2016-12-18T03:51:32.900Z,0
2016-12-18T03:52:32.885Z,0
2016-12-18T03:53:32.862Z,0
2016-12-18T03:54:32.844Z,0
2016-12-18T03:55:32.853Z,0
2016-12-18T03:56:32.802Z,0
2016-12-18T03:57:32.782Z,0
2016-12-18T03:58:32.754Z,0
2016-12-18T03:59:32.735Z,0
2016-12-18T04:00:32.718Z,0
2016-12-18T04:01:32.689Z,0
2016-12-18T04:02:32.705Z,0
2016-12-18T04:03:32.655Z,0
2016-12-18T04:04:32.632Z,0
2016-12-18T04:05:32.621Z,0
2016-12-18T04:06:32.597Z,0
2016-12-18T04:07:32.580Z,0
2016-12-18T04:08:32.559Z,0
2016-12-18T04:09:32.530Z,0
2016-12-18T04:10:32.514Z,0
2016-12-18T04:11:32.494Z,0
2016-12-18T04:12:32.469Z,0
2016-12-18T04:13:32.450Z,0
2016-12-18T04:14:32.462Z,0
2016-12-18T04:15:32.439Z,0
2016-12-18T04:16:32.393Z,0
2016-12-18T04:17:32.377Z,0
2016-12-18T04:18:32.350Z,0
2016-12-18T04:19:32.328Z,0
2016-12-18T04:20:32.315Z,0
2016-12-18T04:21:32.291Z,0
2016-12-18T04:22:32.267Z,0
2016-12-18T04:23:32.284Z,0
2016-12-18T04:24:32.231Z,0
2016-12-18T04:25:32.206Z,0
2016-12-18T04:26:32.188Z,0
2016-12-18T04:27:32.171Z,0
2016-12-18T04:28:32.149Z,0
2016-12-18T04:29:32.129Z,0
2016-12-18T04:30:32.110Z,0
2016-12-18T04:31:32.115Z,0
2016-12-18T04:32:32.071Z,0
2016-12-18T04:33:32.061Z,0
2016-12-18T04:34:32.027Z,0
2016-12-18T04:35:32.013Z,0
2016-12-18T04:36:31.992Z,0
2016-12-18T04:37:31.967Z,0
2016-12-18T04:38:32.254Z,0
2016-12-18T04:39:31.929Z,0
2016-12-18T04:40:31.910Z,0
2016-12-18T04:41:31.894Z,0
2016-12-18T04:42:31.908Z,0
2016-12-18T04:43:31.854Z,0
2016-12-18T04:44:31.826Z,0
2016-12-18T04:45:31.811Z,0
2016-12-18T04:46:31.786Z,0
2016-12-18T04:47:31.765Z,0
2016-12-18T04:48:31.745Z,0
2016-12-18T04:49:31.729Z,0
2016-12-18T04:50:31.707Z,0
2016-12-18T04:51:31.688Z,0
2016-12-18T04:52:31.671Z,0
2016-12-18T04:53:31.649Z,0
2016-12-18T04:54:31.639Z,0
2016-12-18T04:55:31.612Z,0
2016-12-18T04:56:31.591Z,0
2016-12-18T04:57:31.569Z,0
2016-12-18T04:58:31.860Z,0
2016-12-18T04:59:31.526Z,0
2016-12-18T05:00:31.508Z,0
2016-12-18T05:01:31.487Z,0
2016-12-18T05:02:31.473Z,0
2016-12-18T05:03:31.449Z,0
2016-12-18T05:04:31.426Z,0
2016-12-18T05:05:31.410Z,0
2016-12-18T05:06:31.390Z,0
2016-12-18T05:07:31.370Z,0
2016-12-18T05:08:31.380Z,0
2016-12-18T05:09:31.329Z,0
2016-12-18T05:10:31.307Z,0
2016-12-18T05:11:31.295Z,0
2016-12-18T05:12:31.271Z,0
2016-12-18T05:13:31.252Z,0
2016-12-18T05:14:31.230Z,0
2016-12-18T05:15:31.248Z,0
2016-12-18T05:16:31.187Z,0
2016-12-18T05:17:31.198Z,0
2016-12-18T05:18:31.146Z,0
2016-12-18T05:19:31.131Z,0
2016-12-18T05:20:31.114Z,0
2016-12-18T05:21:31.091Z,0
2016-12-18T05:22:31.073Z,0
2016-12-18T05:23:31.049Z,0
2016-12-18T05:24:31.031Z,0
2016-12-18T05:25:31.010Z,0
2016-12-18T05:26:30.988Z,0
2016-12-18T05:27:30.976Z,0
2016-12-18T05:28:30.955Z,0
2016-12-18T05:29:30.937Z,0
2016-12-18T05:30:30.914Z,0
2016-12-18T05:31:30.891Z,0
2016-12-18T05:32:30.882Z,0
2016-12-18T05:33:30.881Z,0
2016-12-18T05:34:30.864Z,0
2016-12-18T05:35:30.842Z,0
2016-12-18T05:36:30.789Z,0
2016-12-18T05:37:30.775Z,0
2016-12-18T05:38:30.747Z,0
2016-12-18T05:39:30.729Z,0
2016-12-18T05:40:30.710Z,0
2016-12-18T05:41:30.691Z,0
2016-12-18T05:42:30.674Z,0
2016-12-18T05:43:30.653Z,0
2016-12-18T05:44:30.829Z,0
2016-12-18T05:45:30.609Z,0
2016-12-18T05:46:30.586Z,0
2016-12-18T05:47:30.565Z,0
2016-12-18T05:48:30.546Z,0
2016-12-18T05:49:30.530Z,0
2016-12-18T05:50:30.511Z,0
2016-12-18T05:51:30.485Z,0
2016-12-18T05:52:30.466Z,0
2016-12-18T05:53:30.444Z,0
2016-12-18T05:54:30.434Z,0
2016-12-18T05:55:30.433Z,0
2016-12-18T05:56:30.381Z,0
2016-12-18T05:57:30.371Z,0
2016-12-18T05:58:30.345Z,0
2016-12-18T05:59:30.322Z,0
2016-12-18T06:00:30.333Z,0
2016-12-18T06:01:30.282Z,0
2016-12-18T06:02:30.257Z,0
2016-12-18T06:03:30.242Z,0
2016-12-18T06:04:30.217Z,0
2016-12-18T06:05:30.209Z,0
2016-12-18T06:06:30.186Z,0
2016-12-18T06:07:30.157Z,0
2016-12-18T06:08:30.133Z,0
2016-12-18T06:09:30.117Z,0
2016-12-18T06:10:30.126Z,0
2016-12-18T06:11:30.072Z,0
2016-12-18T06:12:30.060Z,0
2016-12-18T06:13:30.032Z,0
2016-12-18T06:14:30.010Z,0
2016-12-18T06:15:29.994Z,0
2016-12-18T06:16:29.973Z,0
2016-12-18T06:17:29.949Z,0
2016-12-18T06:18:29.933Z,0
2016-12-18T06:19:29.915Z,0
2016-12-18T06:20:29.885Z,0
2016-12-18T06:21:29.865Z,0
2016-12-18T06:22:29.853Z,0
2016-12-18T06:23:29.829Z,0
2016-12-18T06:24:29.811Z,0
2016-12-18T06:25:29.914Z,0
2016-12-18T06:26:29.766Z,0
2016-12-18T06:27:29.741Z,0
2016-12-18T06:28:30.024Z,0
2016-12-18T06:29:29.705Z,0
2016-12-18T06:30:29.710Z,0
2016-12-18T06:31:29.664Z,0
2016-12-18T06:32:29.642Z,0
2016-12-18T06:33:29.624Z,0
2016-12-18T06:34:29.606Z,0
2016-12-18T06:35:29.578Z,0
2016-12-18T06:36:29.560Z,0
2016-12-18T06:37:29.532Z,0
2016-12-18T06:38:29.513Z,0
2016-12-18T06:39:29.491Z,0
2016-12-18T06:40:29.778Z,5
2016-12-18T06:41:29.454Z,5
2016-12-18T06:42:29.430Z,5
2016-12-18T06:43:29.406Z,5
2016-12-18T06:44:29.696Z,5
2016-12-18T06:45:29.363Z,5
2016-12-18T06:46:29.341Z,10
2016-12-18T06:47:29.321Z,10
2016-12-18T06:48:29.302Z,10
2016-12-18T06:49:29.279Z,10
2016-12-18T06:50:29.265Z,15
2016-12-18T06:51:29.235Z,15
2016-12-18T06:52:29.221Z,15
2016-12-18T06:53:29.193Z,20
2016-12-18T06:54:29.200Z,20
2016-12-18T06:55:29.457Z,25
2016-12-18T06:56:29.132Z,25
2016-12-18T06:57:29.139Z,25
2016-12-18T06:58:29.118Z,30
2016-12-18T06:59:29.066Z,30
2016-12-18T07:00:29.050Z,35
2016-12-18T07:01:29.029Z,40
2016-12-18T07:02:29.005Z,40
2016-12-18T07:03:28.992Z,50
2016-12-18T07:04:28.996Z,65
2016-12-18T07:05:29.248Z,75
2016-12-18T07:06:28.924Z,75
2016-12-18T07:07:28.929Z,85
2016-12-18T07:08:28.881Z,70
2016-12-18T07:09:28.856Z,65
2016-12-18T07:10:28.835Z,75
2016-12-18T07:11:28.811Z,105
2016-12-18T07:12:28.793Z,115
2016-12-18T07:13:28.805Z,115
2016-12-18T07:14:28.759Z,125
2016-12-18T07:15:28.732Z,130
2016-12-18T07:16:28.707Z,135
2016-12-18T07:17:28.689Z,125
2016-12-18T07:18:28.672Z,115
2016-12-18T07:19:28.649Z,100
2016-12-18T07:20:28.627Z,95
2016-12-18T07:21:28.606Z,95
2016-12-18T07:22:28.590Z,100
2016-12-18T07:23:28.568Z,100
2016-12-18T07:24:28.548Z,105
2016-12-18T07:25:28.523Z,105
2016-12-18T07:26:28.509Z,105
2016-12-18T07:27:28.485Z,110
2016-12-18T07:28:28.495Z,110
2016-12-18T07:29:28.474Z,115
2016-12-18T07:30:28.425Z,120
2016-12-18T07:31:28.401Z,125
2016-12-18T07:32:28.382Z,135
2016-12-18T07:33:28.356Z,130
2016-12-18T07:34:28.335Z,130
2016-12-18T07:35:28.317Z,130
2016-12-18T07:36:28.300Z,145
2016-12-18T07:37:28.282Z,170
2016-12-18T07:38:28.254Z,185
2016-12-18T07:39:28.234Z,180
2016-12-18T07:40:28.724Z,220
2016-12-18T07:41:28.196Z,265
2016-12-18T07:42:28.175Z,305
2016-12-18T07:43:28.152Z,285
2016-12-18T07:44:28.131Z,380
2016-12-18T07:45:28.138Z,555
2016-12-18T07:46:28.085Z,530
2016-12-18T07:47:28.065Z,465
2016-12-18T07:48:28.048Z,420
2016-12-18T07:49:28.029Z,490
2016-12-18T07:50:28.007Z,490
2016-12-18T07:51:28.015Z,440
2016-12-18T07:52:27.960Z,320
2016-12-18T07:53:27.941Z,300
2016-12-18T07:54:27.921Z,430
2016-12-18T07:55:27.899Z,355
2016-12-18T07:56:27.885Z,335
2016-12-18T07:57:27.859Z,325
2016-12-18T07:58:27.846Z,325
2016-12-18T07:59:27.822Z,305
2016-12-18T08:00:27.794Z,270
2016-12-18T08:01:27.779Z,275
2016-12-18T08:02:27.755Z,275
2016-12-18T08:03:27.741Z,270
2016-12-18T08:04:27.724Z,275
2016-12-18T08:05:27.692Z,280
2016-12-18T08:06:27.877Z,295
2016-12-18T08:07:27.842Z,310
2016-12-18T08:08:27.634Z,310
2016-12-18T08:09:27.615Z,310
2016-12-18T08:10:27.596Z,320
2016-12-18T08:11:27.577Z,320
2016-12-18T08:12:27.582Z,330
2016-12-18T08:13:27.536Z,355
2016-12-18T08:14:27.513Z,375
2016-12-18T08:15:27.491Z,370
2016-12-18T08:16:27.474Z,340
2016-12-18T08:17:27.454Z,345
2016-12-18T08:18:27.434Z,370
2016-12-18T08:19:27.415Z,375
2016-12-18T08:20:27.391Z,375
2016-12-18T08:21:27.370Z,370
2016-12-18T08:22:27.357Z,410
2016-12-18T08:23:27.337Z,460
2016-12-18T08:24:27.313Z,485
2016-12-18T08:25:27.300Z,485
2016-12-18T08:26:27.275Z,450
2016-12-18T08:27:27.260Z,440
2016-12-18T08:28:27.262Z,445
2016-12-18T08:29:27.222Z,465
2016-12-18T08:30:27.208Z,445
2016-12-18T08:31:27.178Z,440
2016-12-18T08:32:27.162Z,460
2016-12-18T08:33:27.137Z,435
2016-12-18T08:34:27.121Z,410
2016-12-18T08:35:27.106Z,410
2016-12-18T08:36:27.083Z,440
2016-12-18T08:37:27.062Z,465
2016-12-18T08:38:27.044Z,460
2016-12-18T08:39:27.027Z,455
2016-12-18T08:40:27.006Z,455
2016-12-18T08:41:26.987Z,450
2016-12-18T08:42:26.978Z,470
2016-12-18T08:43:26.950Z,480
2016-12-18T08:44:26.927Z,490
2016-12-18T08:45:26.913Z,530
2016-12-18T08:46:26.919Z,575
2016-12-18T08:47:26.872Z,585
2016-12-18T08:48:26.861Z,570
2016-12-18T08:49:26.839Z,545
2016-12-18T08:50:26.819Z,535
2016-12-18T08:51:26.803Z,530
2016-12-18T08:52:26.785Z,555
2016-12-18T08:53:26.769Z,550
2016-12-18T08:54:26.759Z,515
2016-12-18T08:55:26.724Z,500
2016-12-18T08:56:26.709Z,540
2016-12-18T08:57:26.689Z,590
2016-12-18T08:58:26.670Z,645
2016-12-18T08:59:26.660Z,695
2016-12-18T09:00:26.633Z,735
2016-12-18T09:01:26.609Z,715
2016-12-18T09:02:26.799Z,710
2016-12-18T09:03:26.580Z,670
2016-12-18T09:04:26.564Z,655
2016-12-18T09:05:26.545Z,660
2016-12-18T09:06:26.523Z,685
2016-12-18T09:07:26.508Z,695
2016-12-18T09:08:26.485Z,715
2016-12-18T09:09:26.474Z,750
2016-12-18T09:10:26.460Z,780
2016-12-18T09:11:26.431Z,745
2016-12-18T09:12:26.415Z,700
2016-12-18T09:13:26.424Z,695
2016-12-18T09:14:26.387Z,670
2016-12-18T09:15:26.363Z,675
2016-12-18T09:16:26.343Z,705
2016-12-18T09:17:26.354Z,750
2016-12-18T09:18:26.301Z,755
2016-12-18T09:19:26.278Z,750
2016-12-18T09:20:26.269Z,815
2016-12-18T09:21:26.251Z,860
2016-12-18T09:22:26.265Z,795
2016-12-18T09:23:26.212Z,785
2016-12-18T09:24:26.191Z,715
2016-12-18T09:25:26.172Z,690
2016-12-18T09:26:26.156Z,645
2016-12-18T09:27:26.444Z,680
2016-12-18T09:28:26.117Z,750
2016-12-18T09:29:26.099Z,750
2016-12-18T09:30:26.082Z,800
2016-12-18T09:31:26.059Z,945
2016-12-18T09:32:26.043Z,1050
2016-12-18T09:33:26.026Z,965
2016-12-18T09:34:26.010Z,785
2016-12-18T09:35:25.987Z,820
2016-12-18T09:36:25.972Z,885
2016-12-18T09:37:25.948Z,910
2016-12-18T09:38:25.963Z,970
2016-12-18T09:39:25.914Z,965
2016-12-18T09:40:25.945Z,920
2016-12-18T09:41:25.889Z,905
2016-12-18T09:42:25.860Z,850
2016-12-18T09:43:25.842Z,910
2016-12-18T09:44:25.819Z,1050
2016-12-18T09:45:25.850Z,1100
2016-12-18T09:46:25.778Z,1060
2016-12-18T09:47:25.767Z,1080
2016-12-18T09:48:25.780Z,1100
2016-12-18T09:49:25.728Z,1250
2016-12-18T09:50:25.712Z,1290
2016-12-18T09:51:25.693Z,1370
2016-12-18T09:52:25.698Z,1630
2016-12-18T09:53:25.661Z,1215
2016-12-18T09:54:25.638Z,1535
2016-12-18T09:55:25.619Z,1910
2016-12-18T09:56:25.598Z,1700
2016-12-18T09:57:25.781Z,1590
2016-12-18T09:58:25.783Z,1650
2016-12-18T09:59:25.545Z,1925
2016-12-18T10:00:25.531Z,1835
2016-12-18T10:01:25.516Z,1835
2016-12-18T10:02:25.526Z,1720
2016-12-18T10:03:25.475Z,1865
2016-12-18T10:04:25.456Z,1720
2016-12-18T10:05:25.441Z,1660
2016-12-18T10:06:25.427Z,1580
2016-12-18T10:07:25.407Z,1570
2016-12-18T10:08:25.388Z,1580
2016-12-18T10:09:25.366Z,1560
2016-12-18T10:10:25.348Z,1535
2016-12-18T10:11:25.338Z,1740
2016-12-18T10:12:25.320Z,1530
2016-12-18T10:13:25.313Z,2025
2016-12-18T10:14:25.288Z,1965
2016-12-18T10:15:25.301Z,1770
2016-12-18T10:16:25.255Z,1665
2016-12-18T10:17:25.233Z,1835
2016-12-18T10:18:25.221Z,1920
2016-12-18T10:19:25.197Z,1940
2016-12-18T10:20:25.189Z,1890
2016-12-18T10:21:25.269Z,1835
2016-12-18T10:22:25.158Z,1730
2016-12-18T10:23:25.136Z,1660
2016-12-18T10:24:25.119Z,1910
2016-12-18T10:25:25.102Z,2025
2016-12-18T10:26:25.091Z,1935
2016-12-18T10:27:25.070Z,965
2016-12-18T10:28:25.053Z,1190
2016-12-18T10:29:25.038Z,2355
2016-12-18T10:30:25.025Z,1885
2016-12-18T10:31:25.005Z,1375
2016-12-18T10:32:24.994Z,1290
2016-12-18T10:33:24.968Z,1200
2016-12-18T10:34:24.951Z,1175
2016-12-18T10:35:24.938Z,1060
2016-12-18T10:36:24.924Z,1135
2016-12-18T10:37:24.898Z,1225
2016-12-18T10:38:24.888Z,1090
2016-12-18T10:39:24.864Z,1195
2016-12-18T10:40:24.850Z,1320
2016-12-18T10:41:24.834Z,1380
2016-12-18T10:42:24.817Z,1360
2016-12-18T10:43:24.795Z,1235
2016-12-18T10:44:24.779Z,1170
2016-12-18T10:45:24.758Z,1065
2016-12-18T10:46:24.743Z,1090
2016-12-18T10:47:24.721Z,1105
2016-12-18T10:48:24.735Z,1070
2016-12-18T10:49:24.691Z,950
2016-12-18T10:50:24.678Z,900
2016-12-18T10:51:24.657Z,895
2016-12-18T10:52:24.639Z,915
2016-12-18T10:53:24.619Z,890
2016-12-18T10:54:24.595Z,880
2016-12-18T10:55:24.575Z,870
2016-12-18T10:56:24.563Z,855
2016-12-18T10:57:24.540Z,870
2016-12-18T10:58:24.531Z,880
2016-12-18T10:59:24.507Z,855
2016-12-18T11:00:24.484Z,815
2016-12-18T11:01:24.470Z,820
2016-12-18T11:02:24.452Z,820
2016-12-18T11:03:24.429Z,800
2016-12-18T11:04:24.415Z,810
2016-12-18T11:05:24.390Z,825
2016-12-18T11:06:24.375Z,800
2016-12-18T11:07:24.358Z,810
2016-12-18T11:08:24.650Z,850
2016-12-18T11:09:24.324Z,865
2016-12-18T11:10:24.297Z,815
2016-12-18T11:11:24.290Z,805
2016-12-18T11:12:24.270Z,805
2016-12-18T11:13:24.276Z,795
2016-12-18T11:14:24.228Z,815
2016-12-18T11:15:24.210Z,785
2016-12-18T11:16:24.187Z,790
2016-12-18T11:17:24.214Z,800
2016-12-18T11:18:24.151Z,750
2016-12-18T11:19:24.132Z,685
2016-12-18T11:20:24.109Z,650
2016-12-18T11:21:24.122Z,690
2016-12-18T11:22:24.073Z,860
2016-12-18T11:23:24.055Z,910
2016-12-18T11:24:24.035Z,910
2016-12-18T11:25:24.018Z,870
2016-12-18T11:26:24.002Z,815
2016-12-18T11:27:23.980Z,830
2016-12-18T11:28:23.959Z,845
2016-12-18T11:29:23.943Z,825
2016-12-18T11:30:23.930Z,795
2016-12-18T11:31:23.906Z,765
2016-12-18T11:32:23.886Z,760
2016-12-18T11:33:23.866Z,760
2016-12-18T11:34:23.851Z,755
2016-12-18T11:35:23.837Z,765
2016-12-18T11:36:23.810Z,765
2016-12-18T11:37:23.789Z,780
2016-12-18T11:38:23.773Z,785
2016-12-18T11:39:23.753Z,765
2016-12-18T11:40:23.733Z,750
2016-12-18T11:41:23.715Z,725
2016-12-18T11:42:23.692Z,675
2016-12-18T11:43:23.669Z,665
2016-12-18T11:44:23.654Z,655
2016-12-18T11:45:23.632Z,615
2016-12-18T11:46:23.613Z,635
2016-12-18T11:47:23.597Z,655
2016-12-18T11:48:23.576Z,685
2016-12-18T11:49:23.550Z,660
2016-12-18T11:50:23.538Z,650
2016-12-18T11:51:23.518Z,655
2016-12-18T11:52:23.501Z,680
2016-12-18T11:53:23.478Z,700
2016-12-18T11:54:23.458Z,690
2016-12-18T11:55:23.742Z,660
2016-12-18T11:56:23.456Z,670
2016-12-18T11:57:23.397Z,695
2016-12-18T11:58:23.417Z,685
2016-12-18T11:59:23.365Z,675
2016-12-18T12:00:23.341Z,665
2016-12-18T12:01:23.325Z,655
2016-12-18T12:02:23.307Z,660
2016-12-18T12:03:23.286Z,670
2016-12-18T12:04:23.271Z,660
2016-12-18T12:05:23.267Z,650
2016-12-18T12:06:23.230Z,645
2016-12-18T12:07:23.208Z,640
2016-12-18T12:08:23.187Z,625
2016-12-18T12:09:23.169Z,635
2016-12-18T12:10:23.149Z,645
2016-12-18T12:11:23.127Z,670
2016-12-18T12:12:23.118Z,695
2016-12-18T12:13:23.089Z,690
2016-12-18T12:14:23.071Z,680
2016-12-18T12:15:23.053Z,680
2016-12-18T12:16:23.032Z,680
2016-12-18T12:17:23.013Z,680
2016-12-18T12:18:22.992Z,685
2016-12-18T12:19:22.972Z,670
2016-12-18T12:20:22.961Z,665
2016-12-18T12:21:22.935Z,640
2016-12-18T12:22:22.912Z,630
2016-12-18T12:23:22.893Z,635
2016-12-18T12:24:22.875Z,635
2016-12-18T12:25:22.859Z,645
2016-12-18T12:26:22.832Z,650
2016-12-18T12:27:22.814Z,635
2016-12-18T12:28:22.799Z,615
2016-12-18T12:29:22.773Z,630
2016-12-18T12:30:23.059Z,650
2016-12-18T12:31:22.732Z,660
2016-12-18T12:32:22.710Z,655
2016-12-18T12:33:22.691Z,655
2016-12-18T12:34:22.677Z,655
2016-12-18T12:35:22.686Z,665
2016-12-18T12:36:22.640Z,660
2016-12-18T12:37:22.622Z,665
2016-12-18T12:38:22.603Z,690
2016-12-18T12:39:22.573Z,710
2016-12-18T12:40:22.559Z,745
2016-12-18T12:41:22.539Z,760
2016-12-18T12:42:22.560Z,765
2016-12-18T12:43:22.499Z,775
2016-12-18T12:44:22.478Z,785
2016-12-18T12:45:22.456Z,765
2016-12-18T12:46:22.442Z,750
2016-12-18T12:47:22.421Z,690
2016-12-18T12:48:22.403Z,610
2016-12-18T12:49:22.381Z,580
2016-12-18T12:50:22.370Z,560
2016-12-18T12:51:22.341Z,555
2016-12-18T12:52:22.324Z,545
2016-12-18T12:53:22.305Z,545
2016-12-18T12:54:22.584Z,535
2016-12-18T12:55:22.271Z,540
2016-12-18T12:56:22.247Z,560
2016-12-18T12:57:22.232Z,575
2016-12-18T12:58:22.210Z,585
2016-12-18T12:59:22.197Z,595
2016-12-18T13:00:22.175Z,600
2016-12-18T13:01:22.149Z,605
2016-12-18T13:02:22.128Z,605
2016-12-18T13:03:22.110Z,580
2016-12-18T13:04:22.403Z,560
2016-12-18T13:05:22.074Z,545
2016-12-18T13:06:22.057Z,515
2016-12-18T13:07:22.046Z,490
2016-12-18T13:08:22.046Z,465
2016-12-18T13:09:21.995Z,445
2016-12-18T13:10:21.982Z,430
2016-12-18T13:11:21.957Z,415
2016-12-18T13:12:21.941Z,400
2016-12-18T13:13:21.917Z,385
2016-12-18T13:14:21.898Z,375
2016-12-18T13:15:21.877Z,360
2016-12-18T13:16:21.859Z,355
2016-12-18T13:17:21.840Z,350
2016-12-18T13:18:21.850Z,345
2016-12-18T13:19:21.804Z,335
2016-12-18T13:20:21.786Z,330
2016-12-18T13:21:21.761Z,325
2016-12-18T13:22:21.746Z,325
2016-12-18T13:23:21.725Z,330
2016-12-18T13:24:21.706Z,325
2016-12-18T13:25:21.687Z,335
2016-12-18T13:26:21.662Z,345
2016-12-18T13:27:21.649Z,345
2016-12-18T13:28:21.639Z,335
2016-12-18T13:29:21.607Z,325
2016-12-18T13:30:21.588Z,320
2016-12-18T13:31:21.567Z,310
2016-12-18T13:32:21.547Z,300
2016-12-18T13:33:21.538Z,305
2016-12-18T13:34:21.516Z,310
2016-12-18T13:35:21.488Z,310
2016-12-18T13:36:21.470Z,315
2016-12-18T13:37:21.448Z,315
2016-12-18T13:38:21.436Z,315
2016-12-18T13:39:21.441Z,310
2016-12-18T13:40:21.393Z,315
2016-12-18T13:41:21.369Z,300
2016-12-18T13:42:21.356Z,300
2016-12-18T13:43:21.328Z,295
2016-12-18T13:44:21.312Z,290
2016-12-18T13:45:21.292Z,280
2016-12-18T13:46:21.269Z,270
2016-12-18T13:47:21.551Z,260
2016-12-18T13:48:21.233Z,245
2016-12-18T13:49:21.211Z,230
2016-12-18T13:50:21.186Z,220
2016-12-18T13:51:21.173Z,210
2016-12-18T13:52:21.152Z,205
2016-12-18T13:53:21.139Z,190
2016-12-18T13:54:21.112Z,195
2016-12-18T13:55:21.092Z,190
2016-12-18T13:56:21.079Z,180
2016-12-18T13:57:21.047Z,170
2016-12-18T13:58:21.031Z,165
2016-12-18T13:59:21.013Z,170
2016-12-18T14:00:20.999Z,185
2016-12-18T14:01:20.971Z,190
2016-12-18T14:02:20.949Z,185
2016-12-18T14:03:20.929Z,190
2016-12-18T14:04:20.926Z,215
2016-12-18T14:05:20.894Z,215
2016-12-18T14:06:20.873Z,210
2016-12-18T14:07:20.854Z,215
2016-12-18T14:08:20.828Z,215
2016-12-18T14:09:20.807Z,205
2016-12-18T14:10:20.816Z,195
2016-12-18T14:11:20.771Z,195
2016-12-18T14:12:20.747Z,190